Station: Brisbane  

  Atmospheric Gas Attenuation - ITU Rec 676-11   ----------------- dB/100km -----------------
Date Time Temp RH % AH g/m3 Dew Point Wind Direction Speed kph Gust kph Barometer mB Rainfall Since 9am 24GHz 47GHz 76GHz 122GHz 134GHz 241GHz
08/05 12:30 21.2 23 4.26 -0.7 6 11 1018.7 0 10.2 18.1 22.0 56.8 41.9 141.0
08/05 12:20 21 23 4.21 -0.9 2 2 1018.8 0 10.1 18.1 21.9 56.5 41.5 139.6
08/05 12:10 20.3 23 4.04 -1.5 6 7 1019.1 0 9.7 18.0 21.5 55.6 40.2 134.7
08/05 12:00 19.9 20 3.44 -3.7 7 13 1019.4 0 8.5 17.4 19.8 51.0 34.3 114.0
08/05 11:50 19.9 22 3.78 -2.5 6 7 1019.6 0 9.2 17.8 20.9 53.8 37.7 126.0
08/05 11:40 19.8 25 4.27 -0.8 7 9 1019.8 0 10.2 18.4 22.4 57.9 42.8 143.9
08/05 11:30 19.7 25 4.24 -0.9 6 13 1020 0 10.2 18.4 22.3 57.8 42.5 143.0
08/05 11:20 19.4 24 4 -1.7 6 6 1020.1 0 9.7 18.2 21.7 56.0 40.2 134.8
08/05 11:10 19 26 4.24 -1 7 11 1020.2 0 10.2 18.6 22.5 58.3 42.9 144.2
08/05 11:00 19 24 3.91 -2 6 13 1020.4 0 9.5 18.2 21.5 55.5 39.5 132.2
08/05 10:50 18.7 26 4.16 -1.2 4 6 1020.6 0 10.0 18.5 22.4 57.8 42.2 141.8
08/05 10:40 18.1 25 3.86 -2.3 6 7 1020.6 0 9.4 18.3 21.6 55.7 39.4 131.8
08/05 10:30 18.2 25 3.89 -2.1 6 9 1020.7 0 9.5 18.3 21.7 55.9 39.7 132.8
08/05 10:20 18.4 24 3.77 -2.5 7 9 1020.9 0 9.2 18.1 21.2 54.8 38.4 128.1
08/05 10:10 18.5 27 4.27 -0.9 4 4 1021 0 10.3 18.7 22.8 58.9 43.5 146.3
08/05 10:00 17.6 26 3.9 -2.1 7 13 1021.2 0 9.5 18.4 21.9 56.4 40.1 134.1
08/05 09:50 17.7 27 4.07 -1.6 4 6 1021.3 0 9.9 18.6 22.4 57.8 41.8 140.3
08/05 09:40 17.6 30 4.5 -0.2 7 9 1021.3 0 10.8 19.2 23.8 61.6 46.5 156.6
08/05 09:30 17.4 26 3.85 -2.3 7 13 1021.4 0 9.4 18.4 21.8 56.1 39.7 132.6
08/05 09:20 17.3 28 4.12 -1.4 6 7 1021.3 0 10.0 18.8 22.6 58.5 42.6 142.8
08/05 09:10 17.1 29 4.22 -1.1 6 6 1021.3 0 10.2 19.0 23.0 59.5 43.7 146.9
08/05 09:00 16.6 30 4.24 -1 9 17 1021 0 10.3 19.1 23.2 60.0 44.2 148.5
08/05 08:50 16.4 31 4.33 -0.8 11 15 1021.1 0 10.5 19.2 23.6 61.0 45.3 152.3
08/05 08:40 16.1 32 4.39 -0.6 13 19 1021.3 0 10.6 19.4 23.9 61.7 46.1 155.2
08/05 08:30 16 36 4.9 1 7 17 1021.3 0 11.7 20.1 25.6 66.4 51.8 175.2
08/05 08:20 15.5 36 4.76 0.5 9 13 1021.1 0 11.4 20.0 25.3 65.5 50.6 170.7
08/05 08:10 15.2 37 4.8 0.6 7 11 1020.9 0 11.5 20.1 25.5 66.1 51.2 172.9
08/05 08:00 14.9 39 4.97 1.1 6 13 1020.9 0 11.8 20.4 26.2 67.9 53.3 180.3
08/05 07:50 14.6 39 4.88 0.8 9 11 1020.7 0 11.7 20.4 25.9 67.3 52.5 177.3
08/05 07:40 14.3 43 5.28 1.9 7 9 1020.6 0 12.5 21.0 27.4 71.2 57.2 194.1
08/05 07:30 13.9 46 5.51 2.5 4 7 1020.7 0 13.0 21.4 28.4 73.8 60.2 204.6
08/05 07:20 13.6 45 5.3 1.9 9 11 1020.7 0 12.6 21.2 27.7 72.1 58.0 196.6
08/05 07:10 13.1 48 5.48 2.3 7 7 1020.5 0 13.0 21.5 28.5 74.2 60.5 205.3
08/05 07:00 12.7 49 5.46 2.3 6 9 1020.3 0 13.0 21.6 28.6 74.4 60.5 205.4
08/05 06:50 12.3 49 5.32 2.1 7 9 1020.3 0 12.7 21.5 28.2 73.4 59.2 200.6
08/05 06:40 12.2 51 5.5 2.3 6 6 1020.2 0 13.1 21.8 28.9 75.2 61.4 208.4
08/05 06:30 12.2 50 5.4 2.1 4 7 1020.1 0 12.8 21.6 28.5 74.2 60.2 204.2
08/05 06:20 12.3 49 5.32 2.1 4 6 1020 0 12.7 21.5 28.2 73.4 59.1 200.5
08/05 06:10 12.4 49 5.35 2.2 7 9 1019.8 0 12.7 21.5 28.3 73.5 59.4 201.5
08/05 06:00 12.6 49 5.42 2.2 7 13 1019.7 0 12.9 21.5 28.5 74.0 60.1 203.9
08/05 05:50 12.7 49 5.46 2.2 7 9 1019.5 0 13.0 21.6 28.6 74.3 60.5 205.3
08/05 05:40 12.8 49 5.49 2.3 6 9 1019.3 0 13.0 21.6 28.6 74.5 60.7 206.3
08/05 05:30 12.9 49 5.52 2.5 6 11 1019.3 0 13.1 21.6 28.7 74.7 61.0 207.3
08/05 05:20 13 48 5.44 2.2 9 13 1019.2 0 12.9 21.5 28.4 73.8 60.0 203.7
08/05 05:10 13.1 49 5.59 2.6 11 15 1019.2 0 13.2 21.7 28.9 75.2 61.7 209.7
08/05 05:00 12.9 49 5.52 2.5 6 11 1019 0 13.1 21.6 28.7 74.6 61.0 207.2
08/05 04:50 13.1 49 5.59 2.6 4 6 1019.1 0 13.2 21.7 28.9 75.1 61.7 209.6
08/05 04:40 13.4 48 5.58 2.6 4 6 1018.8 0 13.2 21.6 28.7 74.7 61.3 208.4
08/05 04:30 13.5 48 5.61 2.7 6 13 1018.7 0 13.2 21.6 28.8 74.9 61.6 209.4
08/05 04:20 13.7 48 5.68 2.9 9 11 1018.5 0 13.4 21.6 29.0 75.4 62.3 211.7
08/05 04:10 13.7 48 5.68 2.9 7 9 1018.5 0 13.4 21.6 29.0 75.4 62.3 211.7
08/05 04:00 13.7 49 5.8 3.2 9 19 1018.2 0 13.6 21.8 29.4 76.5 63.7 216.7
08/05 03:50 13.9 49 5.87 3.3 9 15 1018.1 0 13.8 21.8 29.6 77.0 64.3 219.1
08/05 03:40 13.9 50 5.99 3.6 11 15 1018.1 0 14.0 22.0 30.0 78.2 65.8 224.1
08/05 03:30 13.8 51 6.08 3.9 6 11 1018.3 0 14.2 22.2 30.4 79.2 67.0 228.2
08/05 03:20 14 50 6.03 3.7 4 4 1018.2 0 14.1 22.1 30.1 78.5 66.2 225.5
08/05 03:10 14.2 51 6.23 4.2 7 9 1018.1 0 14.5 22.3 30.7 80.2 68.4 233.4
08/05 03:00 14.4 50 6.18 4.1 7 15 1018.1 0 14.4 22.2 30.5 79.5 67.6 230.7
08/05 02:50 14.5 50 6.22 4.2 6 9 1017.9 0 14.5 22.2 30.6 79.8 68.0 232.0
08/05 02:40 14.6 50 6.26 4.5 7 13 1017.8 0 14.6 22.2 30.7 80.1 68.4 233.4
08/05 02:30 14.7 51 6.42 4.7 9 17 1017.9 0 14.9 22.4 31.2 81.5 70.2 239.9
08/05 02:20 14.9 51 6.5 4.8 6 11 1017.7 0 15.1 22.5 31.5 82.1 71.0 242.6
08/05 02:10 14.9 52 6.63 5.1 11 15 1017.9 0 15.3 22.7 31.9 83.4 72.6 248.2
08/05 02:00 15.2 51 6.62 5.1 9 20 1017.9 0 15.3 22.6 31.8 83.0 72.2 246.8
08/05 01:50 15.2 51 6.62 5.1 7 15 1017.8 0 15.3 22.6 31.8 83.0 72.2 246.8
08/05 01:40 15.3 51 6.66 5.2 7 9 1017.8 0 15.4 22.7 31.9 83.3 72.6 248.2
08/05 01:30 15.4 51 6.7 5.3 7 17 1017.9 0 15.5 22.7 32.0 83.6 73.0 249.6
08/05 01:20 15.6 51 6.78 5.5 7 13 1017.7 0 15.6 22.8 32.2 84.1 73.8 252.3
08/05 01:10 15.8 51 6.86 5.7 9 17 1017.5 0 15.8 22.8 32.4 84.7 74.5 255.0
08/05 01:00 15.9 51 6.91 5.8 7 15 1017.6 0 15.9 22.9 32.6 85.1 75.0 256.9
08/05 00:50 16.2 49 6.76 5.7 7 13 1017.7 0 15.6 22.6 31.9 83.3 73.0 249.6
08/05 00:40 16.3 49 6.8 5.8 9 13 1017.7 0 15.7 22.6 32.0 83.6 73.4 251.0
08/05 00:30 16.3 50 6.94 5.9 7 17 1017.6 0 15.9 22.8 32.5 84.9 75.0 256.9
08/05 00:20 16.5 49 6.88 5.7 6 9 1017.6 0 15.8 22.7 32.2 84.1 74.1 253.7
08/05 00:10 16.9 47 6.76 5.5 9 17 1017.6 0 15.5 22.4 31.6 82.6 72.3 247.4
08/05 00:00 17.1 45 6.55 5.1 9 19 1017.6 0 15.1 22.0 30.8 80.4 69.7 238.2
07/05 23:50 17.2 46 6.74 5.5 9 15 1017.6 0 15.5 22.3 31.4 82.1 71.8 245.7
07/05 23:40 17.2 44 6.44 5.1 9 11 1017.6 0 14.9 21.9 30.4 79.2 68.3 233.4
07/05 23:30 17.7 44 6.64 5.3 9 17 1017.6 0 15.3 22.0 30.9 80.6 70.2 240.1
07/05 23:20 17.8 44 6.68 5.4 9 13 1017.8 0 15.3 22.1 31.0 80.9 70.6 241.5
07/05 23:10 18 43 6.6 5.2 11 24 1017.7 0 15.2 21.9 30.6 80.0 69.5 237.6
07/05 23:00 18.2 43 6.68 5.4 13 24 1017.7 0 15.3 22.0 30.8 80.5 70.2 240.3
07/05 22:50 18.4 42 6.61 5.2 9 11 1017.6 0 15.2 21.8 30.5 79.6 69.2 236.8
07/05 22:40 18.6 41 6.52 5.1 11 15 1017.3 0 15.0 21.6 30.1 78.6 68.0 232.5
07/05 22:30 18.7 40 6.4 4.8 11 24 1017.3 0 14.7 21.4 29.7 77.4 66.6 227.4
07/05 22:20 18.9 40 6.48 5 17 26 1017.1 0 14.9 21.5 29.9 77.9 67.3 230.0
07/05 22:10 19 40 6.52 5.1 11 19 1017.2 0 15.0 21.5 30.0 78.2 67.7 231.4
07/05 22:00 19.4 38 6.34 4.7 13 26 1017.2 0 14.6 21.2 29.2 76.2 65.3 223.1
07/05 21:50 19.4 38 6.34 4.7 15 20 1017.1 0 14.6 21.2 29.2 76.2 65.3 223.1
07/05 21:40 19.5 37 6.21 4.4 13 17 1017.1 0 14.3 21.0 28.7 74.9 63.8 217.7
07/05 21:30 19.8 37 6.32 4.7 15 30 1016.7 0 14.5 21.1 29.0 75.6 64.7 221.1
07/05 21:20 19.7 37 6.28 4.6 17 20 1016.9 0 14.4 21.0 28.9 75.3 64.4 219.9
07/05 21:10 20 36 6.22 4.5 7 11 1017.1 0 14.3 20.9 28.6 74.5 63.5 216.8
07/05 21:00 20.1 36 6.26 4.6 7 17 1016.9 0 14.4 20.9 28.7 74.8 63.8 218.0
07/05 20:50 20.3 36 6.33 4.7 9 15 1016.7 0 14.5 21.0 28.8 75.2 64.4 220.2
07/05 20:40 20.4 36 6.37 4.8 15 20 1016.5 0 14.6 21.0 28.9 75.5 64.8 221.4
07/05 20:30 20.4 37 6.54 5.2 9 19 1016.4 0 15.0 21.2 29.5 77.0 66.7 228.1
07/05 20:20 20.9 34 6.19 4.8 9 13 1016.3 0 14.2 20.6 28.1 73.4 62.4 213.1
07/05 20:10 20.9 34 6.19 4.8 11 17 1016.1 0 14.2 20.6 28.1 73.4 62.4 213.1
07/05 20:00 21.1 35 6.45 5.1 11 19 1016.3 0 14.7 20.9 28.9 75.5 65.1 222.6

Last Refresh: 08-May-2026 12:07:20

Bureau of Meteorology